sensor_id;sensor_type;location;lat;lon;timestamp;temperature;humidity
47520;DHT22;33252;48.122;11.538;2022-12-29T00:02:10;4.70;94.60
47520;DHT22;33252;48.122;11.538;2022-12-29T00:04:36;4.70;94.70
47520;DHT22;33252;48.122;11.538;2022-12-29T00:07:02;4.70;94.60
47520;DHT22;33252;48.122;11.538;2022-12-29T00:09:30;4.70;94.60
47520;DHT22;33252;48.122;11.538;2022-12-29T00:11:56;4.70;94.50
47520;DHT22;33252;48.122;11.538;2022-12-29T00:14:21;4.70;94.60
47520;DHT22;33252;48.122;11.538;2022-12-29T00:17:05;4.80;94.50
47520;DHT22;33252;48.122;11.538;2022-12-29T00:19:31;4.80;94.30
47520;DHT22;33252;48.122;11.538;2022-12-29T00:22:15;4.80;94.20
47520;DHT22;33252;48.122;11.538;2022-12-29T00:25:00;4.80;94.10
47520;DHT22;33252;48.122;11.538;2022-12-29T00:27:35;4.80;93.90
47520;DHT22;33252;48.122;11.538;2022-12-29T00:30:22;4.80;93.90
47520;DHT22;33252;48.122;11.538;2022-12-29T00:33:14;4.80;94.00
47520;DHT22;33252;48.122;11.538;2022-12-29T00:36:05;4.80;94.00
47520;DHT22;33252;48.122;11.538;2022-12-29T00:38:35;4.80;94.10
47520;DHT22;33252;48.122;11.538;2022-12-29T00:41:19;4.80;93.90
47520;DHT22;33252;48.122;11.538;2022-12-29T00:44:04;4.80;93.80
47520;DHT22;33252;48.122;11.538;2022-12-29T00:46:31;4.80;93.80
47520;DHT22;33252;48.122;11.538;2022-12-29T00:48:57;4.80;93.80
47520;DHT22;33252;48.122;11.538;2022-12-29T00:51:42;4.80;93.60
47520;DHT22;33252;48.122;11.538;2022-12-29T00:54:08;4.80;93.70
47520;DHT22;33252;48.122;11.538;2022-12-29T00:56:34;4.70;93.70
47520;DHT22;33252;48.122;11.538;2022-12-29T00:59:01;4.80;93.70
47520;DHT22;33252;48.122;11.538;2022-12-29T01:01:26;4.70;93.70
47520;DHT22;33252;48.122;11.538;2022-12-29T01:03:52;4.70;93.90
47520;DHT22;33252;48.122;11.538;2022-12-29T01:06:18;4.70;93.70
47520;DHT22;33252;48.122;11.538;2022-12-29T01:08:43;4.70;93.80
47520;DHT22;33252;48.122;11.538;2022-12-29T01:11:11;4.70;93.90
47520;DHT22;33252;48.122;11.538;2022-12-29T01:13:37;4.70;93.80
47520;DHT22;33252;48.122;11.538;2022-12-29T01:16:04;4.70;93.80
47520;DHT22;33252;48.122;11.538;2022-12-29T01:18:30;4.60;94.00
47520;DHT22;33252;48.122;11.538;2022-12-29T01:21:04;4.60;93.70
47520;DHT22;33252;48.122;11.538;2022-12-29T01:23:31;4.70;93.60
47520;DHT22;33252;48.122;11.538;2022-12-29T01:25:57;4.70;93.90
47520;DHT22;33252;48.122;11.538;2022-12-29T01:28:33;4.70;93.50
47520;DHT22;33252;48.122;11.538;2022-12-29T01:31:00;4.70;93.40
47520;DHT22;33252;48.122;11.538;2022-12-29T01:33:26;4.80;93.40
47520;DHT22;33252;48.122;11.538;2022-12-29T01:35:51;4.70;93.50
47520;DHT22;33252;48.122;11.538;2022-12-29T01:38:17;4.80;93.40
47520;DHT22;33252;48.122;11.538;2022-12-29T01:40:44;4.80;93.40
47520;DHT22;33252;48.122;11.538;2022-12-29T01:43:12;4.80;93.10
47520;DHT22;33252;48.122;11.538;2022-12-29T01:45:44;4.80;93.20
47520;DHT22;33252;48.122;11.538;2022-12-29T01:48:11;4.80;93.10
47520;DHT22;33252;48.122;11.538;2022-12-29T01:50:41;4.90;93.10
47520;DHT22;33252;48.122;11.538;2022-12-29T01:53:13;4.90;93.00
47520;DHT22;33252;48.122;11.538;2022-12-29T01:55:44;4.90;93.10
47520;DHT22;33252;48.122;11.538;2022-12-29T01:58:11;4.80;93.10
47520;DHT22;33252;48.122;11.538;2022-12-29T02:00:38;4.90;93.00
47520;DHT22;33252;48.122;11.538;2022-12-29T02:03:06;4.90;93.00
47520;DHT22;33252;48.122;11.538;2022-12-29T02:05:47;4.90;92.80
47520;DHT22;33252;48.122;11.538;2022-12-29T02:08:14;4.90;92.80
47520;DHT22;33252;48.122;11.538;2022-12-29T02:10:40;4.90;92.90
47520;DHT22;33252;48.122;11.538;2022-12-29T02:13:07;4.90;92.60
47520;DHT22;33252;48.122;11.538;2022-12-29T02:29:25;4.90;92.90
47520;DHT22;33252;48.122;11.538;2022-12-29T02:40:53;5.20;92.00
47520;DHT22;33252;48.122;11.538;2022-12-29T02:46:47;5.10;92.00
47520;DHT22;33252;48.122;11.538;2022-12-29T02:49:25;5.10;91.90
47520;DHT22;33252;48.122;11.538;2022-12-29T02:52:00;5.10;91.80
47520;DHT22;33252;48.122;11.538;2022-12-29T02:54:26;5.10;91.80
47520;DHT22;33252;48.122;11.538;2022-12-29T02:57:15;5.10;91.70
47520;DHT22;33252;48.122;11.538;2022-12-29T03:05:45;5.10;91.70
47520;DHT22;33252;48.122;11.538;2022-12-29T03:08:28;5.20;91.70
47520;DHT22;33252;48.122;11.538;2022-12-29T03:11:11;5.30;91.60
47520;DHT22;33252;48.122;11.538;2022-12-29T03:14:18;5.30;91.30
47520;DHT22;33252;48.122;11.538;2022-12-29T03:17:18;5.40;91.40
47520;DHT22;33252;48.122;11.538;2022-12-29T03:19:52;5.40;91.20
47520;DHT22;33252;48.122;11.538;2022-12-29T03:22:27;5.40;91.40
47520;DHT22;33252;48.122;11.538;2022-12-29T03:27:43;5.50;91.20
47520;DHT22;33252;48.122;11.538;2022-12-29T03:30:10;5.50;91.20
47520;DHT22;33252;48.122;11.538;2022-12-29T03:32:45;5.50;91.10
47520;DHT22;33252;48.122;11.538;2022-12-29T03:35:14;5.50;91.10
47520;DHT22;33252;48.122;11.538;2022-12-29T03:40:38;5.60;91.10
47520;DHT22;33252;48.122;11.538;2022-12-29T03:43:06;5.60;90.80
47520;DHT22;33252;48.122;11.538;2022-12-29T03:45:31;5.60;90.80
47520;DHT22;33252;48.122;11.538;2022-12-29T03:47:57;5.70;90.80
47520;DHT22;33252;48.122;11.538;2022-12-29T03:50:23;5.60;91.00
47520;DHT22;33252;48.122;11.538;2022-12-29T03:52:49;5.60;90.70
47520;DHT22;33252;48.122;11.538;2022-12-29T03:55:15;5.70;90.80
47520;DHT22;33252;48.122;11.538;2022-12-29T03:57:44;5.70;90.60
47520;DHT22;33252;48.122;11.538;2022-12-29T04:00:10;5.70;90.50
47520;DHT22;33252;48.122;11.538;2022-12-29T04:02:35;5.70;90.20
47520;DHT22;33252;48.122;11.538;2022-12-29T04:05:01;5.70;90.40
47520;DHT22;33252;48.122;11.538;2022-12-29T04:07:27;5.80;90.60
47520;DHT22;33252;48.122;11.538;2022-12-29T04:09:53;5.70;90.60
47520;DHT22;33252;48.122;11.538;2022-12-29T04:12:18;5.70;90.60
47520;DHT22;33252;48.122;11.538;2022-12-29T04:14:44;5.80;90.50
47520;DHT22;33252;48.122;11.538;2022-12-29T04:17:09;5.70;90.70
47520;DHT22;33252;48.122;11.538;2022-12-29T04:19:35;5.70;90.80
47520;DHT22;33252;48.122;11.538;2022-12-29T04:22:01;5.70;90.70
47520;DHT22;33252;48.122;11.538;2022-12-29T04:24:26;5.80;90.70
47520;DHT22;33252;48.122;11.538;2022-12-29T04:26:52;5.70;90.70
47520;DHT22;33252;48.122;11.538;2022-12-29T04:29:18;5.80;90.50
47520;DHT22;33252;48.122;11.538;2022-12-29T04:31:43;5.80;90.50
47520;DHT22;33252;48.122;11.538;2022-12-29T04:34:09;5.70;90.60
47520;DHT22;33252;48.122;11.538;2022-12-29T04:36:34;5.80;90.80
47520;DHT22;33252;48.122;11.538;2022-12-29T04:39:00;5.70;90.50
47520;DHT22;33252;48.122;11.538;2022-12-29T04:41:26;5.70;90.70
47520;DHT22;33252;48.122;11.538;2022-12-29T04:43:52;5.80;90.70
47520;DHT22;33252;48.122;11.538;2022-12-29T04:46:17;5.70;90.50
47520;DHT22;33252;48.122;11.538;2022-12-29T04:48:43;5.80;90.60
47520;DHT22;33252;48.122;11.538;2022-12-29T04:51:09;5.80;90.50
47520;DHT22;33252;48.122;11.538;2022-12-29T04:53:34;5.80;90.50
47520;DHT22;33252;48.122;11.538;2022-12-29T04:56:00;5.80;90.60
47520;DHT22;33252;48.122;11.538;2022-12-29T04:58:25;5.80;90.60
47520;DHT22;33252;48.122;11.538;2022-12-29T05:00:51;5.80;90.50
47520;DHT22;33252;48.122;11.538;2022-12-29T05:03:18;5.80;90.40
47520;DHT22;33252;48.122;11.538;2022-12-29T05:05:43;5.80;90.40
47520;DHT22;33252;48.122;11.538;2022-12-29T05:08:09;5.80;90.60
47520;DHT22;33252;48.122;11.538;2022-12-29T05:10:35;5.80;90.50
47520;DHT22;33252;48.122;11.538;2022-12-29T05:13:00;5.90;90.40
47520;DHT22;33252;48.122;11.538;2022-12-29T05:15:26;5.80;90.40
47520;DHT22;33252;48.122;11.538;2022-12-29T05:17:52;5.90;90.40
47520;DHT22;33252;48.122;11.538;2022-12-29T05:20:18;5.90;90.40
47520;DHT22;33252;48.122;11.538;2022-12-29T05:22:43;5.90;90.40
47520;DHT22;33252;48.122;11.538;2022-12-29T05:25:09;5.90;90.50
47520;DHT22;33252;48.122;11.538;2022-12-29T05:27:35;5.90;90.30
47520;DHT22;33252;48.122;11.538;2022-12-29T05:30:01;5.90;90.40
47520;DHT22;33252;48.122;11.538;2022-12-29T05:32:27;6.00;90.40
47520;DHT22;33252;48.122;11.538;2022-12-29T05:34:52;6.00;90.50
47520;DHT22;33252;48.122;11.538;2022-12-29T05:37:18;6.00;90.20
47520;DHT22;33252;48.122;11.538;2022-12-29T05:39:44;6.00;90.50
47520;DHT22;33252;48.122;11.538;2022-12-29T05:42:09;6.00;90.40
47520;DHT22;33252;48.122;11.538;2022-12-29T05:44:35;6.00;90.40
47520;DHT22;33252;48.122;11.538;2022-12-29T05:47:01;6.00;90.40
47520;DHT22;33252;48.122;11.538;2022-12-29T05:49:26;6.00;90.20
47520;DHT22;33252;48.122;11.538;2022-12-29T05:51:52;6.00;90.60
47520;DHT22;33252;48.122;11.538;2022-12-29T05:54:17;6.00;90.50
47520;DHT22;33252;48.122;11.538;2022-12-29T05:56:43;6.00;90.50
47520;DHT22;33252;48.122;11.538;2022-12-29T05:59:09;6.00;90.40
47520;DHT22;33252;48.122;11.538;2022-12-29T06:01:37;6.00;90.30
47520;DHT22;33252;48.122;11.538;2022-12-29T06:04:03;6.00;90.50
47520;DHT22;33252;48.122;11.538;2022-12-29T06:06:29;6.00;90.50
47520;DHT22;33252;48.122;11.538;2022-12-29T06:08:54;6.00;90.20
47520;DHT22;33252;48.122;11.538;2022-12-29T06:11:20;6.10;90.20
47520;DHT22;33252;48.122;11.538;2022-12-29T06:13:46;6.00;90.40
47520;DHT22;33252;48.122;11.538;2022-12-29T06:16:11;6.00;90.50
47520;DHT22;33252;48.122;11.538;2022-12-29T06:18:37;6.10;90.40
47520;DHT22;33252;48.122;11.538;2022-12-29T06:21:04;6.00;90.50
47520;DHT22;33252;48.122;11.538;2022-12-29T06:23:30;6.00;90.60
47520;DHT22;33252;48.122;11.538;2022-12-29T06:25:56;6.00;90.60
47520;DHT22;33252;48.122;11.538;2022-12-29T06:28:23;6.00;90.20
47520;DHT22;33252;48.122;11.538;2022-12-29T06:30:48;6.00;90.40
47520;DHT22;33252;48.122;11.538;2022-12-29T06:33:15;6.00;90.50
47520;DHT22;33252;48.122;11.538;2022-12-29T06:35:42;6.00;90.40
47520;DHT22;33252;48.122;11.538;2022-12-29T06:38:08;5.90;90.60
47520;DHT22;33252;48.122;11.538;2022-12-29T06:40:33;5.90;90.60
47520;DHT22;33252;48.122;11.538;2022-12-29T06:42:59;5.90;90.70
47520;DHT22;33252;48.122;11.538;2022-12-29T06:45:27;5.90;90.90
47520;DHT22;33252;48.122;11.538;2022-12-29T06:47:53;5.90;90.90
47520;DHT22;33252;48.122;11.538;2022-12-29T06:50:19;5.90;90.90
47520;DHT22;33252;48.122;11.538;2022-12-29T06:52:44;5.90;90.80
47520;DHT22;33252;48.122;11.538;2022-12-29T06:55:10;5.80;90.80
47520;DHT22;33252;48.122;11.538;2022-12-29T06:57:36;5.80;90.80
47520;DHT22;33252;48.122;11.538;2022-12-29T07:00:03;5.80;90.90
47520;DHT22;33252;48.122;11.538;2022-12-29T07:02:30;5.80;90.90
47520;DHT22;33252;48.122;11.538;2022-12-29T07:04:55;5.80;90.80
47520;DHT22;33252;48.122;11.538;2022-12-29T07:07:21;5.90;90.80
47520;DHT22;33252;48.122;11.538;2022-12-29T07:09:47;5.90;90.80
47520;DHT22;33252;48.122;11.538;2022-12-29T07:12:12;5.90;90.80
47520;DHT22;33252;48.122;11.538;2022-12-29T07:14:38;5.80;90.90
47520;DHT22;33252;48.122;11.538;2022-12-29T07:17:04;5.90;90.80
47520;DHT22;33252;48.122;11.538;2022-12-29T07:19:32;5.90;90.90
47520;DHT22;33252;48.122;11.538;2022-12-29T07:21:58;5.90;90.90
47520;DHT22;33252;48.122;11.538;2022-12-29T07:24:23;5.90;90.70
47520;DHT22;33252;48.122;11.538;2022-12-29T07:26:51;5.90;90.50
47520;DHT22;33252;48.122;11.538;2022-12-29T07:29:17;5.90;90.70
47520;DHT22;33252;48.122;11.538;2022-12-29T07:31:42;5.90;91.00
47520;DHT22;33252;48.122;11.538;2022-12-29T07:34:08;5.90;90.90
47520;DHT22;33252;48.122;11.538;2022-12-29T07:36:34;5.80;90.70
47520;DHT22;33252;48.122;11.538;2022-12-29T07:38:59;5.90;90.80
47520;DHT22;33252;48.122;11.538;2022-12-29T07:41:25;5.90;90.80
47520;DHT22;33252;48.122;11.538;2022-12-29T07:43:51;5.90;90.30
47520;DHT22;33252;48.122;11.538;2022-12-29T07:46:16;6.10;90.20
47520;DHT22;33252;48.122;11.538;2022-12-29T07:48:42;6.10;90.20
47520;DHT22;33252;48.122;11.538;2022-12-29T07:51:07;6.10;90.20
47520;DHT22;33252;48.122;11.538;2022-12-29T07:53:33;6.10;89.90
47520;DHT22;33252;48.122;11.538;2022-12-29T07:55:59;6.20;90.10
47520;DHT22;33252;48.122;11.538;2022-12-29T07:58:24;6.20;89.90
47520;DHT22;33252;48.122;11.538;2022-12-29T08:00:56;6.20;90.00
47520;DHT22;33252;48.122;11.538;2022-12-29T08:03:22;6.30;89.10
47520;DHT22;33252;48.122;11.538;2022-12-29T08:05:48;6.30;88.80
47520;DHT22;33252;48.122;11.538;2022-12-29T08:08:14;6.30;89.40
47520;DHT22;33252;48.122;11.538;2022-12-29T08:10:40;6.30;89.00
47520;DHT22;33252;48.122;11.538;2022-12-29T08:13:06;6.40;88.50
47520;DHT22;33252;48.122;11.538;2022-12-29T08:15:31;6.40;88.90
47520;DHT22;33252;48.122;11.538;2022-12-29T08:17:57;6.40;88.90
47520;DHT22;33252;48.122;11.538;2022-12-29T08:20:23;6.40;89.20
47520;DHT22;33252;48.122;11.538;2022-12-29T08:22:51;6.40;88.90
47520;DHT22;33252;48.122;11.538;2022-12-29T08:25:17;6.40;88.40
47520;DHT22;33252;48.122;11.538;2022-12-29T08:27:42;6.50;88.50
47520;DHT22;33252;48.122;11.538;2022-12-29T08:30:09;6.50;88.20
47520;DHT22;33252;48.122;11.538;2022-12-29T08:32:34;6.60;88.70
47520;DHT22;33252;48.122;11.538;2022-12-29T08:35:00;6.60;88.00
47520;DHT22;33252;48.122;11.538;2022-12-29T08:37:26;6.70;87.60
47520;DHT22;33252;48.122;11.538;2022-12-29T08:39:51;6.80;87.80
47520;DHT22;33252;48.122;11.538;2022-12-29T08:42:17;6.90;87.60
47520;DHT22;33252;48.122;11.538;2022-12-29T08:44:42;6.90;87.90
47520;DHT22;33252;48.122;11.538;2022-12-29T08:47:10;7.00;87.30
47520;DHT22;33252;48.122;11.538;2022-12-29T08:49:38;7.10;87.20
47520;DHT22;33252;48.122;11.538;2022-12-29T08:52:04;7.20;86.70
47520;DHT22;33252;48.122;11.538;2022-12-29T08:54:30;7.20;85.70
47520;DHT22;33252;48.122;11.538;2022-12-29T08:56:55;7.40;85.50
47520;DHT22;33252;48.122;11.538;2022-12-29T08:59:21;7.50;85.70
47520;DHT22;33252;48.122;11.538;2022-12-29T09:01:47;7.50;85.50
47520;DHT22;33252;48.122;11.538;2022-12-29T09:04:13;7.50;85.70
47520;DHT22;33252;48.122;11.538;2022-12-29T09:06:38;7.50;85.40
47520;DHT22;33252;48.122;11.538;2022-12-29T09:09:04;7.60;85.70
47520;DHT22;33252;48.122;11.538;2022-12-29T09:11:30;7.80;84.90
47520;DHT22;33252;48.122;11.538;2022-12-29T09:13:56;7.80;85.00
47520;DHT22;33252;48.122;11.538;2022-12-29T09:16:24;8.00;84.10
47520;DHT22;33252;48.122;11.538;2022-12-29T09:18:50;7.90;83.90
47520;DHT22;33252;48.122;11.538;2022-12-29T09:21:15;8.00;84.20
47520;DHT22;33252;48.122;11.538;2022-12-29T09:23:41;8.20;83.50
47520;DHT22;33252;48.122;11.538;2022-12-29T09:26:08;8.20;82.60
47520;DHT22;33252;48.122;11.538;2022-12-29T09:28:34;8.30;82.50
47520;DHT22;33252;48.122;11.538;2022-12-29T09:31:00;8.40;82.40
47520;DHT22;33252;48.122;11.538;2022-12-29T09:33:26;8.40;82.40
47520;DHT22;33252;48.122;11.538;2022-12-29T09:35:54;8.40;82.60
47520;DHT22;33252;48.122;11.538;2022-12-29T09:38:20;8.40;82.80
47520;DHT22;33252;48.122;11.538;2022-12-29T09:40:51;8.40;82.60
47520;DHT22;33252;48.122;11.538;2022-12-29T09:48:39;8.40;82.40
47520;DHT22;33252;48.122;11.538;2022-12-29T09:51:11;8.50;82.50
47520;DHT22;33252;48.122;11.538;2022-12-29T09:53:50;8.50;82.20
47520;DHT22;33252;48.122;11.538;2022-12-29T09:56:23;8.50;82.60
47520;DHT22;33252;48.122;11.538;2022-12-29T09:59:11;8.50;81.90
47520;DHT22;33252;48.122;11.538;2022-12-29T10:02:04;8.50;82.20
47520;DHT22;33252;48.122;11.538;2022-12-29T10:04:34;8.60;81.60
47520;DHT22;33252;48.122;11.538;2022-12-29T10:10:38;8.50;81.40
47520;DHT22;33252;48.122;11.538;2022-12-29T10:16:40;8.60;80.90
47520;DHT22;33252;48.122;11.538;2022-12-29T10:24:19;8.80;80.50
47520;DHT22;33252;48.122;11.538;2022-12-29T10:26:47;8.80;80.30
47520;DHT22;33252;48.122;11.538;2022-12-29T10:29:24;8.90;79.60
47520;DHT22;33252;48.122;11.538;2022-12-29T10:32:00;8.80;79.20
47520;DHT22;33252;48.122;11.538;2022-12-29T10:34:38;8.80;80.20
47520;DHT22;33252;48.122;11.538;2022-12-29T10:39:53;8.80;80.70
47520;DHT22;33252;48.122;11.538;2022-12-29T10:42:39;8.80;81.80
47520;DHT22;33252;48.122;11.538;2022-12-29T10:45:13;8.80;81.10
47520;DHT22;33252;48.122;11.538;2022-12-29T10:50:17;8.80;81.50
47520;DHT22;33252;48.122;11.538;2022-12-29T10:52:42;8.80;81.90
47520;DHT22;33252;48.122;11.538;2022-12-29T10:55:22;8.80;81.30
47520;DHT22;33252;48.122;11.538;2022-12-29T10:57:49;8.80;81.30
47520;DHT22;33252;48.122;11.538;2022-12-29T11:00:20;8.90;81.80
47520;DHT22;33252;48.122;11.538;2022-12-29T11:05:52;9.00;81.60
47520;DHT22;33252;48.122;11.538;2022-12-29T11:08:25;9.20;81.30
47520;DHT22;33252;48.122;11.538;2022-12-29T11:11:06;9.40;80.50
47520;DHT22;33252;48.122;11.538;2022-12-29T11:13:34;9.60;79.90
47520;DHT22;33252;48.122;11.538;2022-12-29T11:16:00;9.80;79.70
47520;DHT22;33252;48.122;11.538;2022-12-29T11:18:38;9.80;79.40
47520;DHT22;33252;48.122;11.538;2022-12-29T11:23:59;10.20;78.70
47520;DHT22;33252;48.122;11.538;2022-12-29T11:26:26;10.30;78.50
47520;DHT22;33252;48.122;11.538;2022-12-29T11:29:21;10.50;78.40
47520;DHT22;33252;48.122;11.538;2022-12-29T11:31:52;10.60;76.80
47520;DHT22;33252;48.122;11.538;2022-12-29T11:34:34;10.80;77.20
47520;DHT22;33252;48.122;11.538;2022-12-29T11:37:03;11.00;76.10
47520;DHT22;33252;48.122;11.538;2022-12-29T11:42:14;10.90;76.70
47520;DHT22;33252;48.122;11.538;2022-12-29T11:44:46;11.10;76.30
47520;DHT22;33252;48.122;11.538;2022-12-29T11:47:28;10.90;76.00
47520;DHT22;33252;48.122;11.538;2022-12-29T11:49:57;10.90;76.30
47520;DHT22;33252;48.122;11.538;2022-12-29T11:52:26;11.10;76.00
47520;DHT22;33252;48.122;11.538;2022-12-29T11:54:55;11.20;76.00
47520;DHT22;33252;48.122;11.538;2022-12-29T11:57:22;11.10;76.10
47520;DHT22;33252;48.122;11.538;2022-12-29T12:05:11;11.20;75.70
47520;DHT22;33252;48.122;11.538;2022-12-29T12:10:33;11.30;75.50
47520;DHT22;33252;48.122;11.538;2022-12-29T12:13:32;11.40;75.20
47520;DHT22;33252;48.122;11.538;2022-12-29T12:18:52;11.40;75.60
47520;DHT22;33252;48.122;11.538;2022-12-29T12:24:21;11.70;75.30
47520;DHT22;33252;48.122;11.538;2022-12-29T12:26:59;11.90;74.00
47520;DHT22;33252;48.122;11.538;2022-12-29T12:29:37;12.10;73.70
47520;DHT22;33252;48.122;11.538;2022-12-29T12:32:23;12.10;74.90
47520;DHT22;33252;48.122;11.538;2022-12-29T12:34:50;12.20;74.10
47520;DHT22;33252;48.122;11.538;2022-12-29T12:46:08;12.30;74.60
47520;DHT22;33252;48.122;11.538;2022-12-29T12:52:21;12.10;75.30
47520;DHT22;33252;48.122;11.538;2022-12-29T13:00:24;11.90;77.10
47520;DHT22;33252;48.122;11.538;2022-12-29T13:03:17;11.80;77.30
47520;DHT22;33252;48.122;11.538;2022-12-29T13:25:51;11.80;78.50
47520;DHT22;33252;48.122;11.538;2022-12-29T13:28:38;11.70;79.20
47520;DHT22;33252;48.122;11.538;2022-12-29T13:31:15;11.60;79.50
47520;DHT22;33252;48.122;11.538;2022-12-29T13:34:00;11.60;79.20
47520;DHT22;33252;48.122;11.538;2022-12-29T13:36:45;11.60;79.90
47520;DHT22;33252;48.122;11.538;2022-12-29T13:39:22;11.50;79.60
47520;DHT22;33252;48.122;11.538;2022-12-29T13:41:51;11.60;80.00
47520;DHT22;33252;48.122;11.538;2022-12-29T13:44:27;11.50;79.90
47520;DHT22;33252;48.122;11.538;2022-12-29T13:46:56;11.40;80.60
47520;DHT22;33252;48.122;11.538;2022-12-29T13:49:24;11.40;81.10
47520;DHT22;33252;48.122;11.538;2022-12-29T13:57:55;11.50;81.50
47520;DHT22;33252;48.122;11.538;2022-12-29T14:00:28;11.70;81.40
47520;DHT22;33252;48.122;11.538;2022-12-29T14:03:27;11.60;81.70
47520;DHT22;33252;48.122;11.538;2022-12-29T14:08:36;11.40;83.30
47520;DHT22;33252;48.122;11.538;2022-12-29T14:11:09;11.50;82.80
47520;DHT22;33252;48.122;11.538;2022-12-29T14:13:37;11.50;83.50
47520;DHT22;33252;48.122;11.538;2022-12-29T14:16:04;11.30;84.40
47520;DHT22;33252;48.122;11.538;2022-12-29T14:18:32;11.10;84.90
47520;DHT22;33252;48.122;11.538;2022-12-29T14:21:21;11.20;84.70
47520;DHT22;33252;48.122;11.538;2022-12-29T14:23:50;11.20;85.20
47520;DHT22;33252;48.122;11.538;2022-12-29T14:26:36;11.10;85.10
47520;DHT22;33252;48.122;11.538;2022-12-29T14:31:51;11.00;85.30
47520;DHT22;33252;48.122;11.538;2022-12-29T14:37:00;10.80;83.30
47520;DHT22;33252;48.122;11.538;2022-12-29T14:39:39;10.60;82.80
47520;DHT22;33252;48.122;11.538;2022-12-29T14:42:18;10.60;83.10
47520;DHT22;33252;48.122;11.538;2022-12-29T14:47:31;10.40;81.30
47520;DHT22;33252;48.122;11.538;2022-12-29T14:50:05;10.30;80.90
47520;DHT22;33252;48.122;11.538;2022-12-29T14:52:31;10.20;81.30
47520;DHT22;33252;48.122;11.538;2022-12-29T14:55:28;10.20;81.50
47520;DHT22;33252;48.122;11.538;2022-12-29T14:57:51;10.20;81.90
47520;DHT22;33252;48.122;11.538;2022-12-29T15:00:36;10.10;81.60
47520;DHT22;33252;48.122;11.538;2022-12-29T15:03:16;10.00;82.20
47520;DHT22;33252;48.122;11.538;2022-12-29T15:05:47;10.10;82.50
47520;DHT22;33252;48.122;11.538;2022-12-29T15:08:18;9.90;83.50
47520;DHT22;33252;48.122;11.538;2022-12-29T15:13:23;9.90;82.70
47520;DHT22;33252;48.122;11.538;2022-12-29T15:15:51;9.90;83.40
47520;DHT22;33252;48.122;11.538;2022-12-29T15:18:29;9.80;82.90
47520;DHT22;33252;48.122;11.538;2022-12-29T15:21:03;9.80;83.10
47520;DHT22;33252;48.122;11.538;2022-12-29T15:23:32;9.80;82.90
47520;DHT22;33252;48.122;11.538;2022-12-29T15:26:02;9.70;83.00
47520;DHT22;33252;48.122;11.538;2022-12-29T15:28:37;9.70;82.50
47520;DHT22;33252;48.122;11.538;2022-12-29T15:31:05;9.70;82.70
47520;DHT22;33252;48.122;11.538;2022-12-29T15:33:31;9.60;83.40
47520;DHT22;33252;48.122;11.538;2022-12-29T15:36:03;9.60;83.20
47520;DHT22;33252;48.122;11.538;2022-12-29T15:38:30;9.60;82.90
47520;DHT22;33252;48.122;11.538;2022-12-29T15:46:19;9.60;83.20
47520;DHT22;33252;48.122;11.538;2022-12-29T15:48:45;9.60;83.10
47520;DHT22;33252;48.122;11.538;2022-12-29T15:51:20;9.50;83.10
47520;DHT22;33252;48.122;11.538;2022-12-29T15:53:50;9.50;83.40
47520;DHT22;33252;48.122;11.538;2022-12-29T15:56:17;9.50;83.50
47520;DHT22;33252;48.122;11.538;2022-12-29T15:58:49;9.50;83.80
47520;DHT22;33252;48.122;11.538;2022-12-29T16:01:35;9.40;83.90
47520;DHT22;33252;48.122;11.538;2022-12-29T16:04:06;9.40;84.00
47520;DHT22;33252;48.122;11.538;2022-12-29T16:06:37;9.40;84.30
47520;DHT22;33252;48.122;11.538;2022-12-29T16:09:05;9.40;84.10
47520;DHT22;33252;48.122;11.538;2022-12-29T16:11:38;9.40;84.40
47520;DHT22;33252;48.122;11.538;2022-12-29T16:14:23;9.40;84.50
47520;DHT22;33252;48.122;11.538;2022-12-29T16:16:49;9.40;85.00
47520;DHT22;33252;48.122;11.538;2022-12-29T16:19:26;9.40;85.40
47520;DHT22;33252;48.122;11.538;2022-12-29T16:21:54;9.40;85.80
47520;DHT22;33252;48.122;11.538;2022-12-29T16:24:23;9.40;86.40
47520;DHT22;33252;48.122;11.538;2022-12-29T16:26:55;9.40;86.20
47520;DHT22;33252;48.122;11.538;2022-12-29T16:29:23;9.40;86.80
47520;DHT22;33252;48.122;11.538;2022-12-29T16:31:52;9.40;87.20
47520;DHT22;33252;48.122;11.538;2022-12-29T16:37:29;9.40;88.40
47520;DHT22;33252;48.122;11.538;2022-12-29T16:39:55;9.40;88.40
47520;DHT22;33252;48.122;11.538;2022-12-29T16:42:46;9.40;88.60
47520;DHT22;33252;48.122;11.538;2022-12-29T16:47:45;9.40;89.50
47520;DHT22;33252;48.122;11.538;2022-12-29T16:50:15;9.40;89.90
47520;DHT22;33252;48.122;11.538;2022-12-29T16:52:42;9.40;90.10
47520;DHT22;33252;48.122;11.538;2022-12-29T16:55:16;9.40;90.40
47520;DHT22;33252;48.122;11.538;2022-12-29T16:57:43;9.50;90.60
47520;DHT22;33252;48.122;11.538;2022-12-29T17:00:24;9.50;90.70
47520;DHT22;33252;48.122;11.538;2022-12-29T17:02:52;9.40;90.80
47520;DHT22;33252;48.122;11.538;2022-12-29T17:05:19;9.40;90.80
47520;DHT22;33252;48.122;11.538;2022-12-29T17:07:46;9.40;91.00
47520;DHT22;33252;48.122;11.538;2022-12-29T17:10:12;9.30;90.90
47520;DHT22;33252;48.122;11.538;2022-12-29T17:12:43;9.40;90.80
47520;DHT22;33252;48.122;11.538;2022-12-29T17:15:25;9.50;90.70
47520;DHT22;33252;48.122;11.538;2022-12-29T17:17:53;9.50;90.80
47520;DHT22;33252;48.122;11.538;2022-12-29T17:20:25;9.40;91.00
47520;DHT22;33252;48.122;11.538;2022-12-29T17:22:51;9.30;90.90
47520;DHT22;33252;48.122;11.538;2022-12-29T17:25:26;9.30;91.00
47520;DHT22;33252;48.122;11.538;2022-12-29T17:28:11;9.20;91.10
47520;DHT22;33252;48.122;11.538;2022-12-29T17:30:40;9.20;91.20
47520;DHT22;33252;48.122;11.538;2022-12-29T17:33:10;9.20;91.20
47520;DHT22;33252;48.122;11.538;2022-12-29T17:35:37;9.20;91.40
47520;DHT22;33252;48.122;11.538;2022-12-29T17:38:19;9.20;91.40
47520;DHT22;33252;48.122;11.538;2022-12-29T17:40:46;9.20;91.50
47520;DHT22;33252;48.122;11.538;2022-12-29T17:43:13;9.10;91.70
47520;DHT22;33252;48.122;11.538;2022-12-29T17:45:40;9.10;91.80
47520;DHT22;33252;48.122;11.538;2022-12-29T17:48:17;9.10;91.90
47520;DHT22;33252;48.122;11.538;2022-12-29T17:50:44;9.10;91.90
47520;DHT22;33252;48.122;11.538;2022-12-29T17:53:14;9.20;92.00
47520;DHT22;33252;48.122;11.538;2022-12-29T17:55:41;9.10;92.10
47520;DHT22;33252;48.122;11.538;2022-12-29T17:58:27;9.10;92.00
47520;DHT22;33252;48.122;11.538;2022-12-29T18:00:58;9.10;91.90
47520;DHT22;33252;48.122;11.538;2022-12-29T18:05:53;9.10;91.20
47520;DHT22;33252;48.122;11.538;2022-12-29T18:08:19;9.10;90.90
47520;DHT22;33252;48.122;11.538;2022-12-29T18:10:45;9.10;90.80
47520;DHT22;33252;48.122;11.538;2022-12-29T18:13:28;9.00;90.60
47520;DHT22;33252;48.122;11.538;2022-12-29T18:15:55;9.00;90.50
47520;DHT22;33252;48.122;11.538;2022-12-29T18:18:23;9.00;90.00
47520;DHT22;33252;48.122;11.538;2022-12-29T18:20:52;8.90;90.20